sensor_id;sensor_type;location;lat;lon;timestamp;P1;durP1;ratioP1;P2;durP2;ratioP2
38783;SDS011;24531;45.502;12.238;2023-05-08T00:01:43;27.77;;;21.30;;
38783;SDS011;24531;45.502;12.238;2023-05-08T00:04:09;30.60;;;21.63;;
38783;SDS011;24531;45.502;12.238;2023-05-08T00:06:34;32.05;;;22.35;;
38783;SDS011;24531;45.502;12.238;2023-05-08T00:09:00;29.67;;;22.23;;
38783;SDS011;24531;45.502;12.238;2023-05-08T00:11:26;29.20;;;21.70;;
38783;SDS011;24531;45.502;12.238;2023-05-08T00:13:52;30.85;;;21.67;;
38783;SDS011;24531;45.502;12.238;2023-05-08T00:16:17;32.85;;;22.33;;
38783;SDS011;24531;45.502;12.238;2023-05-08T00:18:43;28.85;;;21.52;;
38783;SDS011;24531;45.502;12.238;2023-05-08T00:21:09;31.92;;;21.73;;
38783;SDS011;24531;45.502;12.238;2023-05-08T00:23:34;27.48;;;20.83;;
38783;SDS011;24531;45.502;12.238;2023-05-08T00:26:00;30.55;;;22.15;;
38783;SDS011;24531;45.502;12.238;2023-05-08T00:28:26;30.77;;;22.13;;
38783;SDS011;24531;45.502;12.238;2023-05-08T00:30:51;29.45;;;20.83;;
38783;SDS011;24531;45.502;12.238;2023-05-08T00:33:17;30.50;;;22.23;;
38783;SDS011;24531;45.502;12.238;2023-05-08T00:35:43;29.05;;;22.38;;
38783;SDS011;24531;45.502;12.238;2023-05-08T00:38:09;30.00;;;23.08;;
38783;SDS011;24531;45.502;12.238;2023-05-08T00:40:35;29.75;;;22.80;;
38783;SDS011;24531;45.502;12.238;2023-05-08T00:43:01;27.30;;;21.33;;
38783;SDS011;24531;45.502;12.238;2023-05-08T00:45:36;29.75;;;22.40;;
38783;SDS011;24531;45.502;12.238;2023-05-08T00:48:03;34.53;;;23.75;;
38783;SDS011;24531;45.502;12.238;2023-05-08T00:50:30;30.58;;;23.02;;
38783;SDS011;24531;45.502;12.238;2023-05-08T00:52:56;28.63;;;21.40;;
38783;SDS011;24531;45.502;12.238;2023-05-08T00:55:24;28.10;;;21.50;;
38783;SDS011;24531;45.502;12.238;2023-05-08T00:57:50;28.63;;;20.90;;
38783;SDS011;24531;45.502;12.238;2023-05-08T01:00:16;31.40;;;21.17;;
38783;SDS011;24531;45.502;12.238;2023-05-08T01:02:43;31.27;;;21.75;;
38783;SDS011;24531;45.502;12.238;2023-05-08T01:05:10;30.90;;;23.40;;
38783;SDS011;24531;45.502;12.238;2023-05-08T01:07:36;30.90;;;22.20;;
38783;SDS011;24531;45.502;12.238;2023-05-08T01:10:03;28.38;;;20.80;;
38783;SDS011;24531;45.502;12.238;2023-05-08T01:12:33;27.73;;;20.40;;
38783;SDS011;24531;45.502;12.238;2023-05-08T01:29:02;27.25;;;18.17;;
38783;SDS011;24531;45.502;12.238;2023-05-08T01:34:16;21.88;;;16.98;;
38783;SDS011;24531;45.502;12.238;2023-05-08T01:37:07;24.67;;;17.38;;
38783;SDS011;24531;45.502;12.238;2023-05-08T01:39:45;20.67;;;16.00;;
38783;SDS011;24531;45.502;12.238;2023-05-08T01:42:17;23.25;;;17.13;;
38783;SDS011;24531;45.502;12.238;2023-05-08T01:45:19;18.58;;;15.40;;
38783;SDS011;24531;45.502;12.238;2023-05-08T01:47:53;16.30;;;13.02;;
38783;SDS011;24531;45.502;12.238;2023-05-08T01:50:39;18.08;;;14.32;;
38783;SDS011;24531;45.502;12.238;2023-05-08T01:53:15;24.88;;;12.35;;
38783;SDS011;24531;45.502;12.238;2023-05-08T01:55:46;17.60;;;13.18;;
38783;SDS011;24531;45.502;12.238;2023-05-08T01:58:14;16.50;;;13.90;;
38783;SDS011;24531;45.502;12.238;2023-05-08T02:00:41;22.02;;;12.88;;
38783;SDS011;24531;45.502;12.238;2023-05-08T02:03:08;14.07;;;11.82;;
38783;SDS011;24531;45.502;12.238;2023-05-08T02:05:36;12.65;;;10.77;;
38783;SDS011;24531;45.502;12.238;2023-05-08T02:08:02;19.08;;;11.35;;
38783;SDS011;24531;45.502;12.238;2023-05-08T02:10:28;16.15;;;11.45;;
38783;SDS011;24531;45.502;12.238;2023-05-08T02:12:55;13.90;;;10.43;;
38783;SDS011;24531;45.502;12.238;2023-05-08T02:15:23;12.70;;;9.70;;
38783;SDS011;24531;45.502;12.238;2023-05-08T02:17:51;12.80;;;9.63;;
38783;SDS011;24531;45.502;12.238;2023-05-08T02:20:19;12.57;;;8.27;;
38783;SDS011;24531;45.502;12.238;2023-05-08T02:22:48;11.57;;;8.10;;
38783;SDS011;24531;45.502;12.238;2023-05-08T02:25:15;10.07;;;7.63;;
38783;SDS011;24531;45.502;12.238;2023-05-08T02:27:43;7.07;;;6.28;;
38783;SDS011;24531;45.502;12.238;2023-05-08T02:30:12;7.30;;;6.13;;
38783;SDS011;24531;45.502;12.238;2023-05-08T02:32:42;7.80;;;6.85;;
38783;SDS011;24531;45.502;12.238;2023-05-08T02:35:14;7.35;;;6.15;;
38783;SDS011;24531;45.502;12.238;2023-05-08T02:40:09;6.13;;;4.93;;
38783;SDS011;24531;45.502;12.238;2023-05-08T02:42:38;6.70;;;4.53;;
38783;SDS011;24531;45.502;12.238;2023-05-08T02:45:04;5.57;;;4.63;;
38783;SDS011;24531;45.502;12.238;2023-05-08T02:47:53;10.18;;;3.65;;
38783;SDS011;24531;45.502;12.238;2023-05-08T02:50:34;10.70;;;5.03;;
38783;SDS011;24531;45.502;12.238;2023-05-08T02:53:17;5.05;;;4.53;;
38783;SDS011;24531;45.502;12.238;2023-05-08T02:55:50;8.55;;;5.95;;
38783;SDS011;24531;45.502;12.238;2023-05-08T02:58:54;8.40;;;6.18;;
38783;SDS011;24531;45.502;12.238;2023-05-08T03:04:16;12.43;;;7.00;;
38783;SDS011;24531;45.502;12.238;2023-05-08T03:06:48;8.73;;;6.10;;
38783;SDS011;24531;45.502;12.238;2023-05-08T03:09:15;7.63;;;6.55;;
38783;SDS011;24531;45.502;12.238;2023-05-08T03:11:46;11.43;;;7.13;;
38783;SDS011;24531;45.502;12.238;2023-05-08T03:14:13;14.00;;;8.07;;
38783;SDS011;24531;45.502;12.238;2023-05-08T03:16:43;10.68;;;7.25;;
38783;SDS011;24531;45.502;12.238;2023-05-08T03:19:27;9.65;;;6.90;;
38783;SDS011;24531;45.502;12.238;2023-05-08T03:21:58;11.52;;;7.90;;
38783;SDS011;24531;45.502;12.238;2023-05-08T03:24:25;9.88;;;7.80;;
38783;SDS011;24531;45.502;12.238;2023-05-08T03:26:52;10.45;;;8.35;;
38783;SDS011;24531;45.502;12.238;2023-05-08T03:29:20;13.25;;;9.02;;
38783;SDS011;24531;45.502;12.238;2023-05-08T03:31:48;13.35;;;8.32;;
38783;SDS011;24531;45.502;12.238;2023-05-08T03:34:16;11.90;;;7.97;;
38783;SDS011;24531;45.502;12.238;2023-05-08T03:36:43;11.35;;;7.88;;
38783;SDS011;24531;45.502;12.238;2023-05-08T03:39:09;13.73;;;8.65;;
38783;SDS011;24531;45.502;12.238;2023-05-08T03:41:35;10.02;;;7.63;;
38783;SDS011;24531;45.502;12.238;2023-05-08T03:44:01;16.55;;;8.63;;
38783;SDS011;24531;45.502;12.238;2023-05-08T03:46:28;12.18;;;8.88;;
38783;SDS011;24531;45.502;12.238;2023-05-08T03:48:56;13.10;;;7.90;;
38783;SDS011;24531;45.502;12.238;2023-05-08T03:51:24;10.85;;;7.22;;
38783;SDS011;24531;45.502;12.238;2023-05-08T03:53:51;13.05;;;8.40;;
38783;SDS011;24531;45.502;12.238;2023-05-08T03:56:17;10.35;;;7.35;;
38783;SDS011;24531;45.502;12.238;2023-05-08T03:58:44;11.82;;;7.32;;
38783;SDS011;24531;45.502;12.238;2023-05-08T04:01:19;12.77;;;7.45;;
38783;SDS011;24531;45.502;12.238;2023-05-08T04:03:53;10.88;;;7.82;;
38783;SDS011;24531;45.502;12.238;2023-05-08T04:09:13;13.68;;;8.18;;
38783;SDS011;24531;45.502;12.238;2023-05-08T04:12:00;8.73;;;7.55;;
38783;SDS011;24531;45.502;12.238;2023-05-08T04:14:36;12.02;;;8.18;;
38783;SDS011;24531;45.502;12.238;2023-05-08T04:17:14;11.93;;;8.07;;
38783;SDS011;24531;45.502;12.238;2023-05-08T04:19:46;7.35;;;5.82;;
38783;SDS011;24531;45.502;12.238;2023-05-08T04:22:19;10.20;;;7.43;;
38783;SDS011;24531;45.502;12.238;2023-05-08T04:24:47;10.75;;;7.38;;
38783;SDS011;24531;45.502;12.238;2023-05-08T04:27:15;9.93;;;8.40;;
38783;SDS011;24531;45.502;12.238;2023-05-08T04:29:41;9.88;;;8.45;;
38783;SDS011;24531;45.502;12.238;2023-05-08T04:32:07;12.40;;;8.38;;
38783;SDS011;24531;45.502;12.238;2023-05-08T04:34:34;14.18;;;8.02;;
38783;SDS011;24531;45.502;12.238;2023-05-08T04:37:00;9.18;;;7.00;;
38783;SDS011;24531;45.502;12.238;2023-05-08T04:39:26;10.75;;;7.85;;
38783;SDS011;24531;45.502;12.238;2023-05-08T04:41:51;16.30;;;7.95;;
38783;SDS011;24531;45.502;12.238;2023-05-08T04:44:19;14.13;;;8.40;;
38783;SDS011;24531;45.502;12.238;2023-05-08T04:46:45;9.40;;;7.75;;
38783;SDS011;24531;45.502;12.238;2023-05-08T04:49:10;11.48;;;7.85;;
38783;SDS011;24531;45.502;12.238;2023-05-08T04:51:36;9.55;;;8.10;;
38783;SDS011;24531;45.502;12.238;2023-05-08T04:54:02;8.73;;;6.72;;
38783;SDS011;24531;45.502;12.238;2023-05-08T04:56:27;8.90;;;6.60;;
38783;SDS011;24531;45.502;12.238;2023-05-08T04:58:53;7.55;;;6.55;;
38783;SDS011;24531;45.502;12.238;2023-05-08T05:01:18;8.60;;;6.68;;
38783;SDS011;24531;45.502;12.238;2023-05-08T05:03:44;8.27;;;6.10;;
38783;SDS011;24531;45.502;12.238;2023-05-08T05:06:10;11.43;;;6.43;;
38783;SDS011;24531;45.502;12.238;2023-05-08T05:08:36;8.73;;;6.40;;
38783;SDS011;24531;45.502;12.238;2023-05-08T05:11:01;9.35;;;7.40;;
38783;SDS011;24531;45.502;12.238;2023-05-08T05:13:27;9.70;;;6.32;;
38783;SDS011;24531;45.502;12.238;2023-05-08T05:15:52;9.05;;;6.82;;
38783;SDS011;24531;45.502;12.238;2023-05-08T05:18:19;11.57;;;7.03;;
38783;SDS011;24531;45.502;12.238;2023-05-08T05:20:45;8.82;;;7.03;;
38783;SDS011;24531;45.502;12.238;2023-05-08T05:23:11;10.15;;;7.38;;
38783;SDS011;24531;45.502;12.238;2023-05-08T05:25:36;10.00;;;7.75;;
38783;SDS011;24531;45.502;12.238;2023-05-08T05:28:02;10.35;;;7.03;;
38783;SDS011;24531;45.502;12.238;2023-05-08T05:30:29;10.75;;;7.53;;
38783;SDS011;24531;45.502;12.238;2023-05-08T05:32:54;10.95;;;7.78;;
38783;SDS011;24531;45.502;12.238;2023-05-08T05:35:20;12.30;;;7.53;;
38783;SDS011;24531;45.502;12.238;2023-05-08T05:37:46;8.30;;;6.70;;
38783;SDS011;24531;45.502;12.238;2023-05-08T05:40:11;8.23;;;6.25;;
38783;SDS011;24531;45.502;12.238;2023-05-08T05:42:39;10.07;;;6.82;;
38783;SDS011;24531;45.502;12.238;2023-05-08T05:45:05;10.63;;;6.90;;
38783;SDS011;24531;45.502;12.238;2023-05-08T05:47:31;8.60;;;6.47;;
38783;SDS011;24531;45.502;12.238;2023-05-08T05:49:57;9.50;;;6.43;;
38783;SDS011;24531;45.502;12.238;2023-05-08T05:52:23;6.80;;;5.07;;
38783;SDS011;24531;45.502;12.238;2023-05-08T05:54:48;10.73;;;6.90;;
38783;SDS011;24531;45.502;12.238;2023-05-08T05:57:14;10.20;;;6.50;;
38783;SDS011;24531;45.502;12.238;2023-05-08T05:59:39;11.65;;;6.88;;
38783;SDS011;24531;45.502;12.238;2023-05-08T06:02:05;9.57;;;6.82;;
38783;SDS011;24531;45.502;12.238;2023-05-08T06:07:03;10.45;;;6.28;;
38783;SDS011;24531;45.502;12.238;2023-05-08T06:09:29;14.13;;;6.15;;
38783;SDS011;24531;45.502;12.238;2023-05-08T06:11:55;9.30;;;6.20;;
38783;SDS011;24531;45.502;12.238;2023-05-08T06:14:20;7.18;;;5.70;;
38783;SDS011;24531;45.502;12.238;2023-05-08T06:16:46;9.52;;;5.93;;
38783;SDS011;24531;45.502;12.238;2023-05-08T06:19:11;9.80;;;6.47;;
38783;SDS011;24531;45.502;12.238;2023-05-08T06:21:37;7.28;;;5.68;;
38783;SDS011;24531;45.502;12.238;2023-05-08T06:24:03;7.18;;;5.78;;
38783;SDS011;24531;45.502;12.238;2023-05-08T06:26:30;12.05;;;6.85;;
38783;SDS011;24531;45.502;12.238;2023-05-08T06:28:56;11.13;;;6.47;;
38783;SDS011;24531;45.502;12.238;2023-05-08T06:31:21;7.80;;;6.25;;
38783;SDS011;24531;45.502;12.238;2023-05-08T06:33:47;8.07;;;5.97;;
38783;SDS011;24531;45.502;12.238;2023-05-08T06:36:13;12.18;;;7.13;;
38783;SDS011;24531;45.502;12.238;2023-05-08T06:38:38;11.18;;;6.63;;
38783;SDS011;24531;45.502;12.238;2023-05-08T06:41:04;10.50;;;7.03;;
38783;SDS011;24531;45.502;12.238;2023-05-08T06:43:30;8.18;;;6.57;;
38783;SDS011;24531;45.502;12.238;2023-05-08T06:45:56;7.30;;;5.82;;
38783;SDS011;24531;45.502;12.238;2023-05-08T06:48:21;8.07;;;6.60;;
38783;SDS011;24531;45.502;12.238;2023-05-08T06:50:47;9.18;;;6.43;;
38783;SDS011;24531;45.502;12.238;2023-05-08T06:53:14;9.15;;;6.22;;
38783;SDS011;24531;45.502;12.238;2023-05-08T06:55:43;8.60;;;5.50;;
38783;SDS011;24531;45.502;12.238;2023-05-08T06:58:09;7.28;;;6.47;;
38783;SDS011;24531;45.502;12.238;2023-05-08T07:00:35;12.13;;;7.28;;
38783;SDS011;24531;45.502;12.238;2023-05-08T07:03:00;10.57;;;6.80;;
38783;SDS011;24531;45.502;12.238;2023-05-08T07:05:26;9.77;;;6.75;;
38783;SDS011;24531;45.502;12.238;2023-05-08T07:07:52;9.52;;;7.05;;
38783;SDS011;24531;45.502;12.238;2023-05-08T07:10:20;8.07;;;7.07;;
38783;SDS011;24531;45.502;12.238;2023-05-08T07:12:50;10.88;;;7.65;;
38783;SDS011;24531;45.502;12.238;2023-05-08T07:15:15;9.13;;;6.95;;
38783;SDS011;24531;45.502;12.238;2023-05-08T07:17:41;9.45;;;7.20;;
38783;SDS011;24531;45.502;12.238;2023-05-08T07:20:07;10.00;;;7.65;;
38783;SDS011;24531;45.502;12.238;2023-05-08T07:22:33;11.15;;;8.18;;
38783;SDS011;24531;45.502;12.238;2023-05-08T07:24:59;10.50;;;7.50;;
38783;SDS011;24531;45.502;12.238;2023-05-08T07:27:25;11.00;;;7.38;;
38783;SDS011;24531;45.502;12.238;2023-05-08T07:29:50;11.45;;;6.20;;
38783;SDS011;24531;45.502;12.238;2023-05-08T07:32:16;9.45;;;6.25;;
38783;SDS011;24531;45.502;12.238;2023-05-08T07:34:42;8.07;;;6.40;;
38783;SDS011;24531;45.502;12.238;2023-05-08T07:37:07;8.98;;;6.13;;
38783;SDS011;24531;45.502;12.238;2023-05-08T07:39:34;8.75;;;6.00;;
38783;SDS011;24531;45.502;12.238;2023-05-08T07:41:59;6.53;;;5.13;;
38783;SDS011;24531;45.502;12.238;2023-05-08T07:44:25;7.47;;;5.43;;
38783;SDS011;24531;45.502;12.238;2023-05-08T07:46:51;8.30;;;5.80;;
38783;SDS011;24531;45.502;12.238;2023-05-08T07:49:16;9.60;;;6.00;;
38783;SDS011;24531;45.502;12.238;2023-05-08T07:51:42;6.18;;;4.75;;
38783;SDS011;24531;45.502;12.238;2023-05-08T07:54:08;9.32;;;5.50;;
38783;SDS011;24531;45.502;12.238;2023-05-08T07:56:33;6.53;;;5.35;;
38783;SDS011;24531;45.502;12.238;2023-05-08T07:58:59;7.15;;;6.10;;
38783;SDS011;24531;45.502;12.238;2023-05-08T08:01:24;7.15;;;5.60;;
38783;SDS011;24531;45.502;12.238;2023-05-08T08:03:50;10.40;;;5.60;;
38783;SDS011;24531;45.502;12.238;2023-05-08T08:06:16;6.53;;;5.65;;
38783;SDS011;24531;45.502;12.238;2023-05-08T08:08:42;8.07;;;5.97;;
38783;SDS011;24531;45.502;12.238;2023-05-08T08:11:08;9.27;;;5.95;;
38783;SDS011;24531;45.502;12.238;2023-05-08T08:13:33;10.20;;;6.03;;
38783;SDS011;24531;45.502;12.238;2023-05-08T08:15:59;6.90;;;5.72;;
38783;SDS011;24531;45.502;12.238;2023-05-08T08:18:27;8.70;;;6.05;;
38783;SDS011;24531;45.502;12.238;2023-05-08T08:20:53;9.63;;;7.20;;
38783;SDS011;24531;45.502;12.238;2023-05-08T08:23:19;8.25;;;6.15;;
38783;SDS011;24531;45.502;12.238;2023-05-08T08:25:44;6.75;;;5.57;;
38783;SDS011;24531;45.502;12.238;2023-05-08T08:28:10;11.65;;;6.80;;
38783;SDS011;24531;45.502;12.238;2023-05-08T08:30:36;7.60;;;6.10;;
38783;SDS011;24531;45.502;12.238;2023-05-08T08:33:01;9.15;;;6.60;;
38783;SDS011;24531;45.502;12.238;2023-05-08T08:35:27;8.57;;;6.15;;
38783;SDS011;24531;45.502;12.238;2023-05-08T08:37:54;9.32;;;6.05;;
38783;SDS011;24531;45.502;12.238;2023-05-08T08:40:21;8.13;;;6.20;;
38783;SDS011;24531;45.502;12.238;2023-05-08T08:42:47;7.55;;;6.50;;
38783;SDS011;24531;45.502;12.238;2023-05-08T08:45:12;7.45;;;5.88;;
38783;SDS011;24531;45.502;12.238;2023-05-08T08:47:38;7.43;;;6.22;;
38783;SDS011;24531;45.502;12.238;2023-05-08T08:50:07;8.50;;;6.50;;
38783;SDS011;24531;45.502;12.238;2023-05-08T08:52:42;10.32;;;6.50;;
38783;SDS011;24531;45.502;12.238;2023-05-08T08:55:16;7.72;;;5.90;;
38783;SDS011;24531;45.502;12.238;2023-05-08T08:58:06;10.43;;;7.13;;
38783;SDS011;24531;45.502;12.238;2023-05-08T09:00:32;7.78;;;6.90;;
38783;SDS011;24531;45.502;12.238;2023-05-08T09:03:00;9.40;;;6.95;;
38783;SDS011;24531;45.502;12.238;2023-05-08T09:05:26;8.98;;;7.22;;
38783;SDS011;24531;45.502;12.238;2023-05-08T09:07:54;7.97;;;7.00;;
38783;SDS011;24531;45.502;12.238;2023-05-08T09:10:22;8.50;;;6.40;;
38783;SDS011;24531;45.502;12.238;2023-05-08T09:12:48;7.25;;;6.50;;
38783;SDS011;24531;45.502;12.238;2023-05-08T09:15:14;8.45;;;6.10;;
38783;SDS011;24531;45.502;12.238;2023-05-08T09:17:39;7.68;;;6.72;;
38783;SDS011;24531;45.502;12.238;2023-05-08T09:20:05;10.57;;;7.88;;
38783;SDS011;24531;45.502;12.238;2023-05-08T09:22:31;11.90;;;7.30;;
38783;SDS011;24531;45.502;12.238;2023-05-08T09:25:00;8.43;;;6.20;;
38783;SDS011;24531;45.502;12.238;2023-05-08T09:27:27;8.73;;;7.20;;
38783;SDS011;24531;45.502;12.238;2023-05-08T09:29:58;8.40;;;7.15;;
38783;SDS011;24531;45.502;12.238;2023-05-08T09:32:30;8.00;;;6.57;;
38783;SDS011;24531;45.502;12.238;2023-05-08T09:34:56;8.70;;;7.20;;
38783;SDS011;24531;45.502;12.238;2023-05-08T09:37:22;9.68;;;6.78;;
38783;SDS011;24531;45.502;12.238;2023-05-08T09:39:49;7.95;;;6.35;;
38783;SDS011;24531;45.502;12.238;2023-05-08T09:42:15;10.50;;;7.35;;
38783;SDS011;24531;45.502;12.238;2023-05-08T09:44:48;9.70;;;6.57;;
38783;SDS011;24531;45.502;12.238;2023-05-08T09:47:18;11.05;;;7.32;;
38783;SDS011;24531;45.502;12.238;2023-05-08T09:50:09;7.93;;;6.82;;
38783;SDS011;24531;45.502;12.238;2023-05-08T09:52:35;9.48;;;6.53;;
38783;SDS011;24531;45.502;12.238;2023-05-08T09:55:03;10.02;;;6.90;;
38783;SDS011;24531;45.502;12.238;2023-05-08T09:57:31;8.75;;;6.57;;
38783;SDS011;24531;45.502;12.238;2023-05-08T10:02:37;8.82;;;6.35;;
38783;SDS011;24531;45.502;12.238;2023-05-08T10:05:21;7.18;;;6.25;;
38783;SDS011;24531;45.502;12.238;2023-05-08T10:07:48;6.32;;;5.63;;
38783;SDS011;24531;45.502;12.238;2023-05-08T10:10:13;7.38;;;5.90;;
38783;SDS011;24531;45.502;12.238;2023-05-08T10:12:46;6.70;;;6.00;;
38783;SDS011;24531;45.502;12.238;2023-05-08T10:15:11;8.18;;;5.88;;
38783;SDS011;24531;45.502;12.238;2023-05-08T10:17:40;6.93;;;5.28;;
38783;SDS011;24531;45.502;12.238;2023-05-08T10:20:11;8.10;;;5.93;;
38783;SDS011;24531;45.502;12.238;2023-05-08T10:22:39;6.72;;;5.32;;
38783;SDS011;24531;45.502;12.238;2023-05-08T10:25:09;8.40;;;5.25;;
38783;SDS011;24531;45.502;12.238;2023-05-08T10:27:43;8.02;;;5.32;;
38783;SDS011;24531;45.502;12.238;2023-05-08T10:30:16;6.28;;;5.50;;
38783;SDS011;24531;45.502;12.238;2023-05-08T10:32:48;10.45;;;5.45;;
38783;SDS011;24531;45.502;12.238;2023-05-08T10:35:16;6.60;;;4.70;;
38783;SDS011;24531;45.502;12.238;2023-05-08T10:37:42;6.13;;;4.85;;
38783;SDS011;24531;45.502;12.238;2023-05-08T10:40:10;6.15;;;5.55;;
38783;SDS011;24531;45.502;12.238;2023-05-08T10:42:37;7.25;;;5.47;;
38783;SDS011;24531;45.502;12.238;2023-05-08T10:45:04;6.40;;;5.07;;
38783;SDS011;24531;45.502;12.238;2023-05-08T10:50:24;5.93;;;5.28;;
38783;SDS011;24531;45.502;12.238;2023-05-08T10:55:53;8.55;;;5.13;;
38783;SDS011;24531;45.502;12.238;2023-05-08T11:03:17;8.90;;;4.78;;
38783;SDS011;24531;45.502;12.238;2023-05-08T11:05:44;7.05;;;5.28;;
38783;SDS011;24531;45.502;12.238;2023-05-08T11:08:14;5.40;;;4.88;;
38783;SDS011;24531;45.502;12.238;2023-05-08T11:10:42;5.97;;;4.95;;
38783;SDS011;24531;45.502;12.238;2023-05-08T11:13:12;5.35;;;4.65;;
38783;SDS011;24531;45.502;12.238;2023-05-08T11:15:39;8.00;;;5.45;;
38783;SDS011;24531;45.502;12.238;2023-05-08T11:18:09;8.00;;;5.75;;
38783;SDS011;24531;45.502;12.238;2023-05-08T11:20:39;7.53;;;5.57;;
38783;SDS011;24531;45.502;12.238;2023-05-08T11:26:18;6.65;;;5.03;;
38783;SDS011;24531;45.502;12.238;2023-05-08T11:31:21;8.70;;;5.68;;
38783;SDS011;24531;45.502;12.238;2023-05-08T11:33:49;9.18;;;6.60;;
38783;SDS011;24531;45.502;12.238;2023-05-08T11:36:15;11.05;;;5.82;;
38783;SDS011;24531;45.502;12.238;2023-05-08T11:39:05;7.33;;;5.33;;
38783;SDS011;24531;45.502;12.238;2023-05-08T11:41:39;6.30;;;5.55;;
38783;SDS011;24531;45.502;12.238;2023-05-08T11:46:42;6.88;;;5.57;;
38783;SDS011;24531;45.502;12.238;2023-05-08T11:49:14;8.55;;;5.20;;
38783;SDS011;24531;45.502;12.238;2023-05-08T11:51:41;7.60;;;5.72;;
38783;SDS011;24531;45.502;12.238;2023-05-08T11:54:16;6.90;;;5.43;;
38783;SDS011;24531;45.502;12.238;2023-05-08T11:56:49;8.57;;;6.07;;
38783;SDS011;24531;45.502;12.238;2023-05-08T11:59:21;6.35;;;5.47;;
38783;SDS011;24531;45.502;12.238;2023-05-08T12:01:50;6.90;;;6.13;;
38783;SDS011;24531;45.502;12.238;2023-05-08T12:04:16;6.32;;;5.32;;
38783;SDS011;24531;45.502;12.238;2023-05-08T12:06:41;5.72;;;5.10;;
38783;SDS011;24531;45.502;12.238;2023-05-08T12:09:09;6.80;;;5.88;;
38783;SDS011;24531;45.502;12.238;2023-05-08T12:11:39;7.45;;;5.75;;
38783;SDS011;24531;45.502;12.238;2023-05-08T12:14:07;6.70;;;5.28;;
38783;SDS011;24531;45.502;12.238;2023-05-08T12:16:37;8.27;;;5.60;;
38783;SDS011;24531;45.502;12.238;2023-05-08T12:19:04;20.90;;;17.20;;
38783;SDS011;24531;45.502;12.238;2023-05-08T12:21:34;31.52;;;22.38;;
38783;SDS011;24531;45.502;12.238;2023-05-08T12:24:00;12.80;;;9.20;;
38783;SDS011;24531;45.502;12.238;2023-05-08T12:26:33;9.93;;;6.93;;
38783;SDS011;24531;45.502;12.238;2023-05-08T12:29:00;7.53;;;5.72;;
38783;SDS011;24531;45.502;12.238;2023-05-08T12:31:25;8.25;;;6.63;;
38783;SDS011;24531;45.502;12.238;2023-05-08T12:33:51;9.68;;;6.55;;
38783;SDS011;24531;45.502;12.238;2023-05-08T12:36:18;13.85;;;12.32;;
38783;SDS011;24531;45.502;12.238;2023-05-08T12:38:43;9.90;;;7.85;;
38783;SDS011;24531;45.502;12.238;2023-05-08T12:41:09;12.45;;;9.50;;
38783;SDS011;24531;45.502;12.238;2023-05-08T12:43:35;8.25;;;6.93;;
38783;SDS011;24531;45.502;12.238;2023-05-08T12:46:02;10.20;;;6.40;;
38783;SDS011;24531;45.502;12.238;2023-05-08T12:48:28;9.32;;;5.78;;
38783;SDS011;24531;45.502;12.238;2023-05-08T12:50:54;8.57;;;6.07;;
38783;SDS011;24531;45.502;12.238;2023-05-08T12:53:28;8.55;;;6.63;;
38783;SDS011;24531;45.502;12.238;2023-05-08T12:55:55;11.35;;;6.57;;
38783;SDS011;24531;45.502;12.238;2023-05-08T12:58:25;7.55;;;6.28;;
38783;SDS011;24531;45.502;12.238;2023-05-08T13:00:52;7.60;;;5.55;;
38783;SDS011;24531;45.502;12.238;2023-05-08T13:03:27;9.27;;;5.68;;
38783;SDS011;24531;45.502;12.238;2023-05-08T13:05:54;8.32;;;5.95;;
38783;SDS011;24531;45.502;12.238;2023-05-08T13:08:28;6.63;;;5.47;;
38783;SDS011;24531;45.502;12.238;2023-05-08T13:10:58;9.82;;;6.88;;
38783;SDS011;24531;45.502;12.238;2023-05-08T13:13:32;9.45;;;7.07;;
38783;SDS011;24531;45.502;12.238;2023-05-08T13:16:03;7.60;;;6.75;;
38783;SDS011;24531;45.502;12.238;2023-05-08T13:18:30;8.82;;;6.63;;
38783;SDS011;24531;45.502;12.238;2023-05-08T13:20:56;7.82;;;6.40;;
38783;SDS011;24531;45.502;12.238;2023-05-08T13:23:22;14.35;;;6.05;;
38783;SDS011;24531;45.502;12.238;2023-05-08T13:25:48;8.82;;;6.20;;
38783;SDS011;24531;45.502;12.238;2023-05-08T13:28:15;7.63;;;6.03;;
38783;SDS011;24531;45.502;12.238;2023-05-08T13:30:41;9.00;;;5.93;;
38783;SDS011;24531;45.502;12.238;2023-05-08T13:33:06;5.95;;;5.07;;
38783;SDS011;24531;45.502;12.238;2023-05-08T13:35:33;8.75;;;5.80;;
38783;SDS011;24531;45.502;12.238;2023-05-08T13:37:59;7.18;;;5.93;;
38783;SDS011;24531;45.502;12.238;2023-05-08T13:40:25;9.95;;;5.47;;
38783;SDS011;24531;45.502;12.238;2023-05-08T13:42:51;7.47;;;6.07;;
38783;SDS011;24531;45.502;12.238;2023-05-08T13:45:17;9.35;;;5.82;;
38783;SDS011;24531;45.502;12.238;2023-05-08T13:47:47;9.23;;;5.28;;
38783;SDS011;24531;45.502;12.238;2023-05-08T13:50:14;5.47;;;4.82;;
38783;SDS011;24531;45.502;12.238;2023-05-08T13:52:41;4.90;;;4.35;;
38783;SDS011;24531;45.502;12.238;2023-05-08T13:55:08;5.70;;;4.20;;
38783;SDS011;24531;45.502;12.238;2023-05-08T13:57:35;6.28;;;5.03;;
38783;SDS011;24531;45.502;12.238;2023-05-08T14:00:01;6.95;;;5.47;;
38783;SDS011;24531;45.502;12.238;2023-05-08T14:02:28;8.43;;;5.60;;
38783;SDS011;24531;45.502;12.238;2023-05-08T14:04:54;6.25;;;5.57;;
38783;SDS011;24531;45.502;12.238;2023-05-08T14:07:19;7.32;;;4.88;;
38783;SDS011;24531;45.502;12.238;2023-05-08T14:09:45;6.95;;;4.95;;
38783;SDS011;24531;45.502;12.238;2023-05-08T14:12:11;5.72;;;4.95;;
38783;SDS011;24531;45.502;12.238;2023-05-08T14:14:37;5.05;;;4.55;;
38783;SDS011;24531;45.502;12.238;2023-05-08T14:17:03;6.65;;;4.40;;
38783;SDS011;24531;45.502;12.238;2023-05-08T14:19:29;10.00;;;5.07;;
38783;SDS011;24531;45.502;12.238;2023-05-08T14:21:55;6.95;;;4.05;;
38783;SDS011;24531;45.502;12.238;2023-05-08T14:24:21;5.72;;;4.18;;
38783;SDS011;24531;45.502;12.238;2023-05-08T14:26:47;5.03;;;4.10;;
38783;SDS011;24531;45.502;12.238;2023-05-08T14:29:12;6.43;;;4.13;;
38783;SDS011;24531;45.502;12.238;2023-05-08T14:31:38;9.88;;;4.15;;
38783;SDS011;24531;45.502;12.238;2023-05-08T14:34:04;4.10;;;3.70;;
38783;SDS011;24531;45.502;12.238;2023-05-08T14:36:29;4.93;;;4.03;;
38783;SDS011;24531;45.502;12.238;2023-05-08T14:38:55;5.68;;;3.35;;
38783;SDS011;24531;45.502;12.238;2023-05-08T14:41:21;5.80;;;4.00;;
38783;SDS011;24531;45.502;12.238;2023-05-08T14:43:47;4.43;;;3.30;;
38783;SDS011;24531;45.502;12.238;2023-05-08T14:46:14;4.88;;;3.10;;
38783;SDS011;24531;45.502;12.238;2023-05-08T14:48:40;3.88;;;3.47;;
38783;SDS011;24531;45.502;12.238;2023-05-08T14:51:38;5.63;;;3.70;;
38783;SDS011;24531;45.502;12.238;2023-05-08T14:54:03;4.07;;;3.67;;
38783;SDS011;24531;45.502;12.238;2023-05-08T14:56:29;5.28;;;3.65;;
38783;SDS011;24531;45.502;12.238;2023-05-08T14:58:55;8.27;;;3.80;;
38783;SDS011;24531;45.502;12.238;2023-05-08T15:01:20;5.55;;;3.67;;
38783;SDS011;24531;45.502;12.238;2023-05-08T15:03:46;6.57;;;4.00;;
38783;SDS011;24531;45.502;12.238;2023-05-08T15:06:17;4.90;;;3.95;;
38783;SDS011;24531;45.502;12.238;2023-05-08T15:08:44;4.55;;;3.72;;
38783;SDS011;24531;45.502;12.238;2023-05-08T15:11:10;6.40;;;4.10;;
38783;SDS011;24531;45.502;12.238;2023-05-08T15:13:35;4.60;;;4.20;;
38783;SDS011;24531;45.502;12.238;2023-05-08T15:16:01;5.80;;;3.97;;
38783;SDS011;24531;45.502;12.238;2023-05-08T15:18:26;5.00;;;4.35;;
38783;SDS011;24531;45.502;12.238;2023-05-08T15:20:52;6.30;;;4.13;;
38783;SDS011;24531;45.502;12.238;2023-05-08T15:23:18;4.38;;;3.97;;